Chicago O'Hare, IL

7:48 AM CDT on May 05, 2015 (GMT -0500)
Chicago-O'Hare International | | Change Station
CLOSE
Current Station
Airport
Location: Chicago,
Elevation: 673 ft
Nearby Weather Stations

Elev 673 ft 41.99 °N, 87.93 °W | Updated 37 minutes ago

Rain
Rain
50 °F
Feels Like 50 °F
N
13
Wind Variable Wind from East

Today
High -- | Low -- °F
--% Chance of Precip.
Yesterday
High -- | Low -- °F
Precip. -- in
5:42 AM 7:54 PM
Full, 98% visible
Pressure 30.17 in
Visibility 6.0 miles
Clouds Few 600 ft
Overcast 9500 ft
Dew Point 49 °F
Humidity 96%
Rainfall 1.36 in
Snow Depth Not available.
UV 0 out of 12
Pollen .60 out of 12
Air Quality Not available.
Flu Activity Local Activity
SPECI KORD 051211Z 08011KT 6SM -RA BR FEW006 OVC095 10/09 A3017 RMK AO2 PRESFR P0001 T01000094

More Conditions Fewer Conditions

Pressure 30.17 in
Visibility 6.0 miles
Clouds Few 600 ft
Overcast 9500 ft
Dew Point 49 °F
Humidity 96%
Rainfall 1.36 in
Snow Depth Not available.
UV 0 out of 12
Pollen .60 out of 12
Air Quality Not available.
Flu Activity Local Activity
SPECI KORD 051211Z 08011KT 6SM -RA BR FEW006 OVC095 10/09 A3017 RMK AO2 PRESFR P0001 T01000094

More Conditions Fewer Conditions

Nepal has a long way to go to dig out and rebuild from a devastating earthquake. We have teamed up with several charities and organizations to make contributing to the relief effort as easy as possible.
How you can help: Portlight Strategies | Red Cross

10-Day Weather Forecast

Almanac

Astronomy

May. 05, 2015 Rise Set
Actual Time
Civil Twilight
Nautical Twilight
Astronomical Twilight
Moon
Length of Visible Light
Length of Day
Tomorrow will be .
, % of the Moon is Illuminated

Today's Extremes

State Highs State Lows

Community

WunderPhotos

Upload Photos

1,818,875 photos uploaded!

WunderBlogs® & News

Nearby

Air Quality

  Air Quality AQ Index Pollutant
Not available.

Snow Depth

Station Depth Elevation

Earthquake Activity

City Distance Mag. Time & Date
Minimum magnitude displayed is 2.5.

Coastal Water Temperatures

Place Temperature

Stations

Nearby Weather Stations

Station Location Temp. Windchill Dew Point Humidity Wind Precip. Elev Updated Type